createdAt,value
2022-10-06T00:01:34.847Z,69.79
2022-10-06T00:04:37.361Z,69.41
2022-10-06T00:07:40.143Z,67.45
2022-10-06T00:10:42.693Z,65.73
2022-10-06T00:13:45.555Z,64.78
2022-10-06T00:16:48.106Z,63.70
2022-10-06T00:19:50.576Z,62.48
2022-10-06T00:22:53.264Z,62.69
2022-10-06T00:25:56.358Z,62.83
2022-10-06T00:28:58.975Z,62.65
2022-10-06T00:32:01.496Z,62.33
2022-10-06T00:35:04.911Z,61.98
2022-10-06T00:38:07.560Z,62.10
2022-10-06T00:41:11.283Z,61.94
2022-10-06T00:44:13.909Z,61.82
2022-10-06T00:47:22.016Z,60.61
2022-10-06T00:50:24.755Z,59.17
2022-10-06T00:53:28.614Z,58.54
2022-10-06T00:56:31.349Z,58.65
2022-10-06T00:59:34.712Z,59.26
2022-10-06T01:02:41.144Z,60.84
2022-10-06T01:05:46.547Z,68.15
2022-10-06T01:08:49.401Z,72.28
2022-10-06T01:11:53.591Z,70.01
2022-10-06T01:14:56.711Z,67.85
2022-10-06T01:18:02.387Z,66.63
2022-10-06T01:21:10.185Z,65.73
2022-10-06T01:24:16.317Z,64.40
2022-10-06T01:27:19.969Z,63.83
2022-10-06T01:30:25.565Z,63.07
2022-10-06T01:33:29.187Z,62.54
2022-10-06T01:36:32.149Z,62.04
2022-10-06T01:39:34.804Z,61.46
2022-10-06T01:42:37.835Z,61.31
2022-10-06T01:45:40.411Z,61.08
2022-10-06T01:48:43.936Z,60.82
2022-10-06T01:51:48.152Z,60.51
2022-10-06T01:54:50.816Z,60.45
2022-10-06T01:57:53.797Z,60.45
2022-10-06T02:00:57.085Z,60.67
2022-10-06T02:04:00.651Z,60.66
2022-10-06T02:07:04.370Z,60.49
2022-10-06T02:10:14.216Z,60.14
2022-10-06T02:13:17.787Z,59.84
2022-10-06T02:16:21.892Z,59.88
2022-10-06T02:19:24.561Z,59.91
2022-10-06T02:22:30.464Z,59.88
2022-10-06T02:25:32.983Z,59.93
2022-10-06T02:28:35.551Z,59.88
2022-10-06T02:31:39.023Z,59.77
2022-10-06T02:34:41.859Z,60.03
2022-10-06T02:37:45.455Z,59.92
2022-10-06T02:40:51.211Z,59.76
2022-10-06T02:43:54.540Z,59.71
2022-10-06T02:46:57.423Z,60.32
2022-10-06T02:50:01.727Z,60.61
2022-10-06T02:53:06.408Z,60.27
2022-10-06T02:56:10.320Z,60.12
2022-10-06T02:59:13.213Z,59.96
2022-10-06T03:02:16.378Z,60.27
2022-10-06T03:05:19.841Z,60.08
2022-10-06T03:08:22.504Z,60.31
2022-10-06T03:11:27.153Z,60.45
2022-10-06T03:14:33.027Z,60.48
2022-10-06T03:17:35.826Z,60.28
2022-10-06T03:20:38.857Z,60.39
2022-10-06T03:23:41.965Z,60.33
2022-10-06T03:26:47.267Z,60.25
2022-10-06T03:29:50.967Z,60.11
2022-10-06T03:32:54.547Z,59.96
2022-10-06T03:36:00.438Z,58.78
2022-10-06T03:39:04.369Z,58.13
2022-10-06T03:42:07.852Z,58.89
2022-10-06T03:45:13.427Z,59.66
2022-10-06T03:48:15.966Z,60.55
2022-10-06T03:51:20.888Z,65.82
2022-10-06T03:54:23.999Z,70.80
2022-10-06T03:57:27.284Z,69.02
2022-10-06T04:00:30.505Z,67.21
2022-10-06T04:03:33.846Z,64.85
2022-10-06T04:06:37.395Z,64.30
2022-10-06T04:09:41.550Z,63.77
2022-10-06T04:12:45.798Z,62.94
2022-10-06T04:15:48.718Z,62.49
2022-10-06T04:18:52.951Z,62.17
2022-10-06T04:21:55.448Z,61.78
2022-10-06T04:25:00.609Z,61.34
2022-10-06T04:28:03.578Z,61.17
2022-10-06T04:31:15.138Z,60.69
2022-10-06T04:34:17.883Z,60.49
2022-10-06T04:37:21.660Z,60.17
2022-10-06T04:40:24.787Z,60.17
2022-10-06T04:43:27.698Z,60.13
2022-10-06T04:46:42.582Z,60.28
2022-10-06T04:49:46.723Z,60.41
2022-10-06T04:52:49.495Z,60.62
2022-10-06T04:55:59.459Z,60.80
2022-10-06T04:59:02.009Z,60.47
2022-10-06T05:02:06.311Z,60.92
2022-10-06T05:05:10.333Z,61.26
2022-10-06T05:08:13.755Z,61.21
2022-10-06T05:11:18.099Z,61.17
2022-10-06T05:14:22.230Z,61.08
2022-10-06T05:17:25.732Z,61.24
2022-10-06T05:20:31.040Z,61.32
2022-10-06T05:23:36.943Z,61.23
2022-10-06T05:26:39.738Z,61.39
2022-10-06T05:29:45.809Z,61.15
2022-10-06T05:32:49.889Z,61.25
2022-10-06T05:35:52.875Z,61.05
2022-10-06T05:38:56.430Z,61.05
2022-10-06T05:41:59.007Z,61.06
2022-10-06T05:45:02.591Z,61.03
2022-10-06T05:48:05.731Z,60.99
2022-10-06T05:51:09.979Z,60.97
2022-10-06T05:54:14.450Z,60.92
2022-10-06T05:57:17.091Z,60.93
2022-10-06T06:00:19.903Z,60.67
2022-10-06T06:03:22.712Z,60.20
2022-10-06T06:06:26.419Z,59.99
2022-10-06T06:09:30.710Z,60.11
2022-10-06T06:12:35.083Z,60.44
2022-10-06T06:16:03.560Z,60.84
2022-10-06T06:19:08.066Z,61.11
2022-10-06T06:22:12.041Z,61.64
2022-10-06T06:25:16.502Z,61.78
2022-10-06T06:28:19.558Z,62.02
2022-10-06T06:31:25.971Z,62.13
2022-10-06T06:34:29.468Z,61.81
2022-10-06T06:37:32.888Z,61.64
2022-10-06T06:40:39.464Z,61.78
2022-10-06T06:43:42.127Z,61.53
2022-10-06T06:46:53.382Z,61.29
2022-10-06T06:49:58.237Z,61.28
2022-10-06T06:53:01.847Z,60.80
2022-10-06T06:56:05.844Z,61.14
2022-10-06T06:59:11.186Z,61.74
2022-10-06T07:02:15.126Z,61.88
2022-10-06T07:05:20.119Z,63.13
2022-10-06T07:08:22.719Z,63.13
2022-10-06T07:11:26.666Z,64.02
2022-10-06T07:14:29.744Z,63.45
2022-10-06T07:17:50.746Z,63.79
2022-10-06T07:21:11.903Z,63.63
2022-10-06T07:24:33.076Z,62.65
2022-10-06T07:27:36.758Z,62.16
2022-10-06T07:30:40.925Z,62.29
2022-10-06T07:33:55.368Z,62.79
2022-10-06T07:37:01.581Z,62.68
2022-10-06T07:40:08.350Z,62.04
2022-10-06T07:43:11.083Z,62.10
2022-10-06T07:46:24.280Z,61.10
2022-10-06T07:49:34.857Z,60.35
2022-10-06T07:52:39.215Z,60.00
2022-10-06T07:55:44.485Z,60.13
2022-10-06T07:58:57.972Z,59.71
2022-10-06T08:02:00.595Z,59.38
2022-10-06T08:05:03.359Z,62.33
2022-10-06T08:08:06.227Z,62.54
2022-10-06T08:11:09.359Z,60.49
2022-10-06T08:14:14.398Z,59.33
2022-10-06T08:17:17.001Z,61.02
2022-10-06T08:20:19.790Z,62.53
2022-10-06T08:23:22.346Z,60.47
2022-10-06T08:26:25.728Z,59.49
2022-10-06T08:29:28.425Z,60.92
2022-10-06T08:32:32.414Z,62.23
2022-10-06T08:35:35.521Z,61.85
2022-10-06T08:38:38.525Z,59.66
2022-10-06T08:41:47.745Z,59.26
2022-10-06T08:44:56.268Z,59.98
2022-10-06T08:48:01.981Z,60.86
2022-10-06T08:51:22.177Z,61.02
2022-10-06T08:54:29.247Z,59.97
2022-10-06T08:57:36.635Z,59.47
2022-10-06T09:00:39.290Z,58.81
2022-10-06T09:03:46.599Z,58.97
2022-10-06T09:06:51.834Z,59.57
2022-10-06T09:10:03.215Z,61.03
2022-10-06T09:13:07.448Z,61.09
2022-10-06T09:16:12.817Z,61.60
2022-10-06T09:19:19.304Z,61.17
2022-10-06T09:22:22.968Z,59.74
2022-10-06T09:25:27.675Z,58.24
2022-10-06T09:28:30.191Z,57.30
2022-10-06T09:31:37.257Z,57.09
2022-10-06T09:34:42.462Z,55.36
2022-10-06T09:37:56.386Z,55.54
2022-10-06T09:40:58.991Z,55.36
2022-10-06T09:44:04.127Z,53.20
2022-10-06T09:47:20.880Z,49.67
2022-10-06T09:50:24.927Z,49.45
2022-10-06T09:53:27.316Z,48.86
2022-10-06T09:56:32.513Z,49.84
2022-10-06T09:59:40.123Z,48.27
2022-10-06T10:02:43.283Z,48.51
2022-10-06T10:05:49.861Z,48.82
2022-10-06T10:08:56.508Z,48.62
2022-10-06T10:12:27.275Z,48.72
2022-10-06T10:15:32.416Z,48.57
2022-10-06T10:18:34.944Z,48.49
2022-10-06T10:21:37.760Z,47.75
2022-10-06T10:24:49.703Z,47.37
2022-10-06T10:27:54.818Z,47.20
2022-10-06T10:31:01.206Z,46.32
2022-10-06T10:34:12.462Z,45.95
2022-10-06T10:37:27.957Z,44.88
2022-10-06T10:40:35.620Z,44.49
2022-10-06T10:43:41.419Z,44.88
2022-10-06T10:46:47.719Z,45.45
2022-10-06T10:49:53.004Z,45.72
2022-10-06T10:52:59.051Z,45.85
2022-10-06T10:56:03.197Z,45.49
2022-10-06T10:59:10.765Z,45.48
2022-10-06T11:02:17.160Z,45.44
2022-10-06T11:05:31.955Z,45.66
2022-10-06T11:08:39.765Z,46.02
2022-10-06T11:11:51.924Z,45.35
2022-10-06T11:14:58.879Z,44.97
2022-10-06T11:18:08.715Z,44.88
2022-10-06T11:21:13.689Z,45.42
2022-10-06T11:24:19.447Z,44.58
2022-10-06T11:27:27.135Z,44.26
2022-10-06T11:30:33.235Z,44.39
2022-10-06T11:33:40.281Z,43.92
2022-10-06T11:36:46.833Z,45.97
2022-10-06T11:39:54.007Z,45.71
2022-10-06T11:43:01.308Z,45.98
2022-10-06T11:46:07.511Z,46.19
2022-10-06T11:49:28.159Z,45.29
2022-10-06T11:52:45.589Z,45.38
2022-10-06T11:56:08.749Z,46.38
2022-10-06T11:59:34.565Z,46.74
2022-10-06T12:02:37.994Z,46.66
2022-10-06T12:05:57.285Z,45.83
2022-10-06T12:09:01.333Z,45.42
2022-10-06T12:12:26.022Z,44.58
2022-10-06T12:19:18.845Z,43.93
2022-10-06T12:22:24.705Z,43.68
2022-10-06T12:25:31.384Z,43.81
2022-10-06T12:28:36.623Z,43.68
2022-10-06T12:31:44.728Z,43.60
2022-10-06T12:34:55.565Z,43.31
2022-10-06T12:38:03.949Z,43.62
2022-10-06T12:41:09.118Z,44.48
2022-10-06T12:44:21.486Z,44.82
2022-10-06T12:47:30.419Z,45.38
2022-10-06T12:50:33.249Z,43.79
2022-10-06T12:53:38.254Z,44.45
2022-10-06T12:56:41.558Z,43.02
2022-10-06T12:59:44.523Z,41.77
2022-10-06T13:02:47.628Z,42.56
2022-10-06T13:05:51.199Z,43.14
2022-10-06T13:09:12.425Z,43.14
2022-10-06T13:12:26.665Z,43.42
2022-10-06T13:18:37.904Z,43.56
2022-10-06T13:21:40.716Z,43.71
2022-10-06T13:24:43.139Z,43.45
2022-10-06T13:27:49.786Z,43.05
2022-10-06T13:30:53.479Z,42.17
2022-10-06T13:33:58.415Z,41.72
2022-10-06T13:37:01.525Z,42.08
2022-10-06T13:40:21.958Z,42.19
2022-10-06T13:43:34.095Z,42.51
2022-10-06T13:47:22.064Z,42.11
2022-10-06T13:50:27.293Z,42.22
2022-10-06T13:53:33.712Z,42.64
2022-10-06T13:56:40.736Z,42.60
2022-10-06T13:59:46.582Z,42.27
2022-10-06T14:02:54.364Z,41.99
2022-10-06T14:06:12.701Z,41.89
2022-10-06T14:09:22.002Z,41.76
2022-10-06T14:12:27.612Z,41.08
2022-10-06T14:15:39.485Z,41.52
2022-10-06T14:18:46.742Z,41.91
2022-10-06T14:21:52.257Z,41.44
2022-10-06T14:24:57.464Z,41.85
2022-10-06T14:28:02.680Z,42.05
2022-10-06T14:31:13.479Z,42.58
2022-10-06T14:34:21.472Z,41.88
2022-10-06T14:37:26.584Z,42.06
2022-10-06T14:40:31.940Z,42.98
2022-10-06T14:43:38.161Z,42.49
2022-10-06T14:46:44.763Z,42.96
2022-10-06T14:49:50.195Z,42.72
2022-10-06T14:52:58.699Z,43.00
2022-10-06T14:56:05.783Z,42.71
2022-10-06T14:59:16.754Z,42.74
2022-10-06T15:02:22.204Z,43.04
2022-10-06T15:05:27.619Z,43.06
2022-10-06T15:08:32.946Z,42.78
2022-10-06T15:11:38.716Z,42.88
2022-10-06T15:14:43.817Z,42.43
2022-10-06T15:17:49.142Z,42.13
2022-10-06T15:20:54.906Z,42.23
2022-10-06T15:24:00.947Z,42.29
2022-10-06T15:27:25.127Z,42.49
2022-10-06T15:30:31.059Z,42.79
2022-10-06T15:33:36.966Z,43.02
2022-10-06T15:36:43.200Z,43.05
2022-10-06T15:39:48.455Z,43.13
2022-10-06T15:42:53.712Z,43.31
2022-10-06T15:45:59.107Z,43.49
2022-10-06T15:49:05.630Z,44.21
2022-10-06T15:52:12.466Z,45.08
2022-10-06T15:55:17.697Z,46.14
2022-10-06T15:58:23.323Z,46.92
2022-10-06T16:01:34.021Z,47.72
2022-10-06T16:04:55.587Z,48.63
2022-10-06T16:08:00.916Z,49.62
2022-10-06T16:11:06.157Z,49.75
2022-10-06T16:14:11.766Z,50.28
2022-10-06T16:17:17.057Z,50.27
2022-10-06T16:20:22.431Z,50.70
2022-10-06T16:23:27.624Z,51.55
2022-10-06T16:26:33.054Z,51.43
2022-10-06T16:29:38.211Z,51.94
2022-10-06T16:32:44.548Z,53.13
2022-10-06T16:35:56.145Z,53.53
2022-10-06T16:39:01.578Z,53.12
2022-10-06T16:42:09.324Z,53.15
2022-10-06T16:45:15.487Z,53.19
2022-10-06T16:48:20.793Z,53.03
2022-10-06T16:51:26.880Z,52.68
2022-10-06T16:54:32.179Z,52.68
2022-10-06T16:57:37.379Z,52.80
2022-10-06T17:00:42.666Z,52.86
2022-10-06T17:03:47.841Z,52.94
2022-10-06T17:06:54.093Z,53.13
2022-10-06T17:10:19.131Z,53.46
2022-10-06T17:13:25.243Z,53.74
2022-10-06T17:16:34.304Z,54.10
2022-10-06T17:19:39.516Z,54.28
2022-10-06T17:22:45.201Z,54.71
2022-10-06T17:26:03.385Z,55.36
2022-10-06T17:29:11.096Z,55.77
2022-10-06T17:32:16.756Z,56.19
2022-10-06T17:35:22.011Z,56.49
2022-10-06T17:38:27.999Z,56.67
2022-10-06T17:41:35.147Z,56.93
2022-10-06T17:44:40.426Z,57.19
2022-10-06T17:47:48.730Z,57.47
2022-10-06T17:50:59.633Z,57.81
2022-10-06T17:54:05.714Z,58.58
2022-10-06T17:57:11.045Z,58.66
2022-10-06T18:00:18.246Z,58.84
2022-10-06T18:03:26.580Z,59.01
2022-10-06T18:06:33.209Z,59.27
2022-10-06T18:09:39.150Z,59.70
2022-10-06T18:12:44.506Z,59.88
2022-10-06T18:15:51.087Z,60.19
2022-10-06T18:19:20.349Z,67.01
2022-10-06T18:22:25.749Z,76.15
2022-10-06T18:25:35.328Z,73.12
2022-10-06T18:28:41.521Z,67.72
2022-10-06T18:31:49.042Z,65.07
2022-10-06T18:38:22.560Z,58.80
2022-10-06T18:41:31.368Z,56.12
2022-10-06T18:44:55.777Z,58.63
2022-10-06T18:48:20.417Z,60.31
2022-10-06T18:51:30.252Z,61.25
2022-10-06T18:54:37.235Z,65.97
2022-10-06T18:57:45.816Z,67.10
2022-10-06T19:00:54.618Z,64.13
2022-10-06T19:04:04.830Z,61.00
2022-10-06T19:07:11.510Z,57.10
2022-10-06T19:10:18.257Z,57.59
2022-10-06T19:13:25.058Z,60.22
2022-10-06T19:16:32.034Z,61.61
2022-10-06T19:19:38.597Z,66.21
2022-10-06T19:22:45.165Z,66.80
2022-10-06T19:25:59.756Z,64.12
2022-10-06T19:29:08.377Z,62.11
2022-10-06T19:32:17.713Z,60.16
2022-10-06T19:35:24.542Z,57.23
2022-10-06T19:38:31.448Z,57.90
2022-10-06T19:41:57.228Z,59.68
2022-10-06T19:45:04.943Z,61.58
2022-10-06T19:48:11.707Z,68.56
2022-10-06T19:51:19.710Z,68.16
2022-10-06T19:54:27.849Z,65.06
2022-10-06T19:57:35.202Z,63.01
2022-10-06T20:00:42.252Z,60.67
2022-10-06T20:03:48.849Z,57.65
2022-10-06T20:06:55.544Z,58.40
2022-10-06T20:10:03.165Z,60.94
2022-10-06T20:13:09.880Z,66.41
2022-10-06T20:16:18.807Z,67.12
2022-10-06T20:19:26.254Z,63.56
2022-10-06T20:22:32.858Z,60.84
2022-10-06T20:25:39.572Z,59.80
2022-10-06T20:28:47.031Z,57.33
2022-10-06T20:31:56.356Z,58.31
2022-10-06T20:35:03.929Z,60.53
2022-10-06T20:38:10.544Z,65.39
2022-10-06T20:41:19.661Z,65.74
2022-10-06T20:44:26.250Z,62.66
2022-10-06T20:47:33.701Z,60.69
2022-10-06T20:50:40.295Z,57.78
2022-10-06T20:53:47.546Z,58.60
2022-10-06T20:56:56.695Z,60.85
2022-10-06T21:00:03.469Z,66.43
2022-10-06T21:03:10.435Z,66.25
2022-10-06T21:06:18.523Z,62.33
2022-10-06T21:09:28.364Z,60.04
2022-10-06T21:12:35.392Z,57.28
2022-10-06T21:15:47.706Z,58.75
2022-10-06T21:18:55.015Z,60.95
2022-10-06T21:22:01.603Z,66.67
2022-10-06T21:25:09.982Z,67.34
2022-10-06T21:28:18.543Z,64.33
2022-10-06T21:31:27.151Z,62.40
2022-10-06T21:34:37.551Z,61.11
2022-10-06T21:37:44.504Z,59.91
2022-10-06T21:40:51.567Z,58.52
2022-10-06T21:43:59.621Z,57.91
2022-10-06T21:47:07.978Z,60.58
2022-10-06T21:50:14.993Z,66.11
2022-10-06T21:53:22.015Z,66.06
2022-10-06T21:56:30.557Z,63.16
2022-10-06T21:59:37.287Z,61.35
2022-10-06T22:02:44.018Z,60.01
2022-10-06T22:05:50.791Z,58.22
2022-10-06T22:08:58.702Z,59.47
2022-10-06T22:12:05.966Z,64.27
2022-10-06T22:15:13.403Z,65.98
2022-10-06T22:18:20.083Z,63.97
2022-10-06T22:21:28.583Z,62.25
2022-10-06T22:24:35.305Z,60.64
2022-10-06T22:27:42.352Z,59.80
2022-10-06T22:30:49.382Z,57.92
2022-10-06T22:33:57.781Z,59.12
2022-10-06T22:37:04.452Z,61.71
2022-10-06T22:40:13.781Z,67.31
2022-10-06T22:43:20.515Z,67.28
2022-10-06T22:46:28.359Z,63.99
2022-10-06T22:49:35.332Z,62.36
2022-10-06T22:52:42.069Z,61.66
2022-10-06T22:55:49.137Z,61.33
2022-10-06T22:58:59.691Z,60.89
2022-10-06T23:02:07.091Z,60.12
2022-10-06T23:05:13.655Z,58.26
2022-10-06T23:08:20.543Z,59.37
2022-10-06T23:11:27.199Z,61.73
2022-10-06T23:14:33.958Z,67.27
2022-10-06T23:17:41.215Z,67.75
2022-10-06T23:20:48.192Z,65.03
2022-10-06T23:23:56.324Z,62.53
2022-10-06T23:27:04.679Z,60.65
2022-10-06T23:30:13.382Z,60.15
2022-10-06T23:33:20.067Z,57.85
2022-10-06T23:36:26.930Z,59.27
2022-10-06T23:39:33.717Z,64.84
2022-10-06T23:42:40.459Z,66.50
2022-10-06T23:45:47.360Z,64.47
2022-10-06T23:48:54.151Z,62.39
2022-10-06T23:52:01.030Z,61.07
2022-10-06T23:55:08.884Z,60.85
2022-10-06T23:58:15.793Z,60.70
